sensor_id;sensor_type;location;lat;lon;timestamp;P1;durP1;ratioP1;P2;durP2;ratioP2
39540;SDS011;25219;52.244;21.006;2023-06-22T00:02:16;17.65;;;14.95;;
39540;SDS011;25219;52.244;21.006;2023-06-22T00:04:42;18.90;;;15.57;;
39540;SDS011;25219;52.244;21.006;2023-06-22T00:07:08;17.83;;;14.73;;
39540;SDS011;25219;52.244;21.006;2023-06-22T00:09:33;17.33;;;15.30;;
39540;SDS011;25219;52.244;21.006;2023-06-22T00:11:58;18.42;;;16.00;;
39540;SDS011;25219;52.244;21.006;2023-06-22T00:14:24;17.97;;;15.27;;
39540;SDS011;25219;52.244;21.006;2023-06-22T00:16:49;18.03;;;15.97;;
39540;SDS011;25219;52.244;21.006;2023-06-22T00:19:15;21.30;;;16.00;;
39540;SDS011;25219;52.244;21.006;2023-06-22T00:21:40;18.85;;;16.27;;
39540;SDS011;25219;52.244;21.006;2023-06-22T00:24:05;16.27;;;14.57;;
39540;SDS011;25219;52.244;21.006;2023-06-22T00:26:31;20.02;;;15.25;;
39540;SDS011;25219;52.244;21.006;2023-06-22T00:28:56;21.13;;;16.60;;
39540;SDS011;25219;52.244;21.006;2023-06-22T00:31:21;17.88;;;15.77;;
39540;SDS011;25219;52.244;21.006;2023-06-22T00:33:47;17.43;;;15.63;;
39540;SDS011;25219;52.244;21.006;2023-06-22T00:36:12;18.70;;;15.90;;
39540;SDS011;25219;52.244;21.006;2023-06-22T00:38:41;17.98;;;16.08;;
39540;SDS011;25219;52.244;21.006;2023-06-22T00:41:06;21.33;;;16.73;;
39540;SDS011;25219;52.244;21.006;2023-06-22T00:43:31;19.73;;;15.80;;
39540;SDS011;25219;52.244;21.006;2023-06-22T00:45:56;18.02;;;15.88;;
39540;SDS011;25219;52.244;21.006;2023-06-22T00:48:22;18.60;;;16.60;;
39540;SDS011;25219;52.244;21.006;2023-06-22T00:50:47;23.63;;;17.00;;
39540;SDS011;25219;52.244;21.006;2023-06-22T00:53:15;19.30;;;16.58;;
39540;SDS011;25219;52.244;21.006;2023-06-22T00:55:43;18.05;;;15.93;;
39540;SDS011;25219;52.244;21.006;2023-06-22T00:58:10;20.33;;;17.70;;
39540;SDS011;25219;52.244;21.006;2023-06-22T01:00:36;20.55;;;16.77;;
39540;SDS011;25219;52.244;21.006;2023-06-22T01:03:01;20.77;;;17.27;;
39540;SDS011;25219;52.244;21.006;2023-06-22T01:05:27;21.20;;;17.25;;
39540;SDS011;25219;52.244;21.006;2023-06-22T01:08:11;25.48;;;18.38;;
39540;SDS011;25219;52.244;21.006;2023-06-22T01:10:48;24.02;;;17.95;;
39540;SDS011;25219;52.244;21.006;2023-06-22T01:15:44;23.05;;;18.50;;
39540;SDS011;25219;52.244;21.006;2023-06-22T01:18:11;25.15;;;19.65;;
39540;SDS011;25219;52.244;21.006;2023-06-22T01:20:38;23.15;;;20.25;;
39540;SDS011;25219;52.244;21.006;2023-06-22T01:23:07;23.48;;;19.50;;
39540;SDS011;25219;52.244;21.006;2023-06-22T01:25:45;23.27;;;18.88;;
39540;SDS011;25219;52.244;21.006;2023-06-22T01:28:19;23.50;;;20.10;;
39540;SDS011;25219;52.244;21.006;2023-06-22T01:30:47;23.83;;;20.52;;
39540;SDS011;25219;52.244;21.006;2023-06-22T01:33:14;28.75;;;21.75;;
39540;SDS011;25219;52.244;21.006;2023-06-22T01:35:40;25.05;;;20.90;;
39540;SDS011;25219;52.244;21.006;2023-06-22T01:38:06;26.27;;;21.50;;
39540;SDS011;25219;52.244;21.006;2023-06-22T01:40:32;27.70;;;21.60;;
39540;SDS011;25219;52.244;21.006;2023-06-22T01:42:57;25.50;;;21.73;;
39540;SDS011;25219;52.244;21.006;2023-06-22T01:45:24;25.58;;;22.33;;
39540;SDS011;25219;52.244;21.006;2023-06-22T01:47:49;26.48;;;22.98;;
39540;SDS011;25219;52.244;21.006;2023-06-22T01:50:15;26.75;;;22.73;;
39540;SDS011;25219;52.244;21.006;2023-06-22T01:52:40;29.40;;;23.53;;
39540;SDS011;25219;52.244;21.006;2023-06-22T01:55:05;27.80;;;23.97;;
39540;SDS011;25219;52.244;21.006;2023-06-22T01:57:32;28.77;;;23.77;;
39540;SDS011;25219;52.244;21.006;2023-06-22T02:00:02;29.33;;;23.97;;
39540;SDS011;25219;52.244;21.006;2023-06-22T02:02:30;32.30;;;23.75;;
39540;SDS011;25219;52.244;21.006;2023-06-22T02:04:58;27.95;;;24.08;;
39540;SDS011;25219;52.244;21.006;2023-06-22T02:07:27;28.60;;;23.65;;
39540;SDS011;25219;52.244;21.006;2023-06-22T02:09:53;29.00;;;24.65;;
39540;SDS011;25219;52.244;21.006;2023-06-22T02:12:21;30.15;;;25.60;;
39540;SDS011;25219;52.244;21.006;2023-06-22T02:14:47;31.45;;;24.52;;
39540;SDS011;25219;52.244;21.006;2023-06-22T02:17:12;30.13;;;24.65;;
39540;SDS011;25219;52.244;21.006;2023-06-22T02:19:41;30.77;;;25.70;;
39540;SDS011;25219;52.244;21.006;2023-06-22T02:22:06;29.33;;;24.58;;
39540;SDS011;25219;52.244;21.006;2023-06-22T02:24:31;29.83;;;24.80;;
39540;SDS011;25219;52.244;21.006;2023-06-22T02:26:58;36.17;;;26.08;;
39540;SDS011;25219;52.244;21.006;2023-06-22T02:29:23;34.65;;;27.02;;
39540;SDS011;25219;52.244;21.006;2023-06-22T02:31:48;36.30;;;27.57;;
39540;SDS011;25219;52.244;21.006;2023-06-22T02:34:14;36.17;;;28.73;;
39540;SDS011;25219;52.244;21.006;2023-06-22T02:36:43;34.75;;;29.60;;
39540;SDS011;25219;52.244;21.006;2023-06-22T02:39:15;36.30;;;29.17;;
39540;SDS011;25219;52.244;21.006;2023-06-22T02:41:40;33.97;;;29.40;;
39540;SDS011;25219;52.244;21.006;2023-06-22T02:44:05;37.30;;;30.92;;
39540;SDS011;25219;52.244;21.006;2023-06-22T02:46:31;40.30;;;31.13;;
39540;SDS011;25219;52.244;21.006;2023-06-22T02:48:56;38.67;;;30.30;;
39540;SDS011;25219;52.244;21.006;2023-06-22T02:51:21;40.53;;;32.07;;
39540;SDS011;25219;52.244;21.006;2023-06-22T02:53:46;45.73;;;32.57;;
39540;SDS011;25219;52.244;21.006;2023-06-22T02:56:12;44.97;;;32.72;;
39540;SDS011;25219;52.244;21.006;2023-06-22T02:58:37;40.72;;;32.65;;
39540;SDS011;25219;52.244;21.006;2023-06-22T03:01:04;40.05;;;32.35;;
39540;SDS011;25219;52.244;21.006;2023-06-22T03:03:30;40.20;;;31.95;;
39540;SDS011;25219;52.244;21.006;2023-06-22T03:05:55;40.55;;;31.75;;
39540;SDS011;25219;52.244;21.006;2023-06-22T03:08:20;39.13;;;32.00;;
39540;SDS011;25219;52.244;21.006;2023-06-22T03:10:45;39.83;;;31.95;;
39540;SDS011;25219;52.244;21.006;2023-06-22T03:13:10;40.97;;;32.08;;
39540;SDS011;25219;52.244;21.006;2023-06-22T03:15:36;42.47;;;32.70;;
39540;SDS011;25219;52.244;21.006;2023-06-22T03:18:01;44.30;;;32.70;;
39540;SDS011;25219;52.244;21.006;2023-06-22T03:20:26;42.97;;;33.03;;
39540;SDS011;25219;52.244;21.006;2023-06-22T03:22:58;43.40;;;33.47;;
39540;SDS011;25219;52.244;21.006;2023-06-22T03:25:23;44.63;;;33.43;;
39540;SDS011;25219;52.244;21.006;2023-06-22T03:27:48;41.03;;;32.50;;
39540;SDS011;25219;52.244;21.006;2023-06-22T03:30:14;41.13;;;31.73;;
39540;SDS011;25219;52.244;21.006;2023-06-22T03:32:39;42.90;;;33.40;;
39540;SDS011;25219;52.244;21.006;2023-06-22T03:35:05;43.47;;;30.90;;
39540;SDS011;25219;52.244;21.006;2023-06-22T03:37:31;38.03;;;30.98;;
39540;SDS011;25219;52.244;21.006;2023-06-22T03:39:56;41.78;;;31.33;;
39540;SDS011;25219;52.244;21.006;2023-06-22T03:42:21;41.42;;;31.58;;
39540;SDS011;25219;52.244;21.006;2023-06-22T03:44:46;41.40;;;30.23;;
39540;SDS011;25219;52.244;21.006;2023-06-22T03:47:12;37.90;;;30.02;;
39540;SDS011;25219;52.244;21.006;2023-06-22T03:49:37;39.27;;;30.77;;
39540;SDS011;25219;52.244;21.006;2023-06-22T03:52:02;37.97;;;28.87;;
39540;SDS011;25219;52.244;21.006;2023-06-22T03:54:28;44.35;;;29.15;;
39540;SDS011;25219;52.244;21.006;2023-06-22T03:56:53;38.45;;;29.75;;
39540;SDS011;25219;52.244;21.006;2023-06-22T03:59:18;38.00;;;30.27;;
39540;SDS011;25219;52.244;21.006;2023-06-22T04:01:44;38.30;;;29.67;;
39540;SDS011;25219;52.244;21.006;2023-06-22T04:04:09;40.40;;;30.98;;
39540;SDS011;25219;52.244;21.006;2023-06-22T04:06:34;39.97;;;29.53;;
39540;SDS011;25219;52.244;21.006;2023-06-22T04:09:00;36.30;;;28.63;;
39540;SDS011;25219;52.244;21.006;2023-06-22T04:11:26;37.55;;;28.90;;
39540;SDS011;25219;52.244;21.006;2023-06-22T04:13:51;39.17;;;29.67;;
39540;SDS011;25219;52.244;21.006;2023-06-22T04:16:16;36.47;;;27.27;;
39540;SDS011;25219;52.244;21.006;2023-06-22T04:18:41;38.00;;;29.70;;
39540;SDS011;25219;52.244;21.006;2023-06-22T04:21:06;39.07;;;30.73;;
39540;SDS011;25219;52.244;21.006;2023-06-22T04:23:32;35.15;;;28.88;;
39540;SDS011;25219;52.244;21.006;2023-06-22T04:25:57;37.75;;;28.67;;
39540;SDS011;25219;52.244;21.006;2023-06-22T04:28:24;38.80;;;28.65;;
39540;SDS011;25219;52.244;21.006;2023-06-22T04:30:49;40.10;;;28.07;;
39540;SDS011;25219;52.244;21.006;2023-06-22T04:33:15;33.90;;;27.85;;
39540;SDS011;25219;52.244;21.006;2023-06-22T04:35:41;37.85;;;27.35;;
39540;SDS011;25219;52.244;21.006;2023-06-22T04:38:06;33.77;;;26.93;;
39540;SDS011;25219;52.244;21.006;2023-06-22T04:40:32;34.85;;;27.20;;
39540;SDS011;25219;52.244;21.006;2023-06-22T04:42:57;33.95;;;27.85;;
39540;SDS011;25219;52.244;21.006;2023-06-22T04:45:22;35.53;;;27.40;;
39540;SDS011;25219;52.244;21.006;2023-06-22T04:47:47;31.33;;;25.85;;
39540;SDS011;25219;52.244;21.006;2023-06-22T04:50:12;36.87;;;26.57;;
39540;SDS011;25219;52.244;21.006;2023-06-22T04:52:38;32.27;;;25.93;;
39540;SDS011;25219;52.244;21.006;2023-06-22T04:55:03;31.80;;;26.57;;
39540;SDS011;25219;52.244;21.006;2023-06-22T04:57:28;41.22;;;27.15;;
39540;SDS011;25219;52.244;21.006;2023-06-22T04:59:57;34.75;;;25.52;;
39540;SDS011;25219;52.244;21.006;2023-06-22T05:02:34;34.10;;;26.00;;
39540;SDS011;25219;52.244;21.006;2023-06-22T05:04:59;30.43;;;25.70;;
39540;SDS011;25219;52.244;21.006;2023-06-22T05:07:25;32.55;;;25.25;;
39540;SDS011;25219;52.244;21.006;2023-06-22T05:09:50;33.67;;;25.45;;
39540;SDS011;25219;52.244;21.006;2023-06-22T05:12:15;31.87;;;25.50;;
39540;SDS011;25219;52.244;21.006;2023-06-22T05:14:40;33.53;;;24.83;;
39540;SDS011;25219;52.244;21.006;2023-06-22T05:17:06;34.47;;;26.40;;
39540;SDS011;25219;52.244;21.006;2023-06-22T05:19:38;35.38;;;24.65;;
39540;SDS011;25219;52.244;21.006;2023-06-22T05:22:03;36.63;;;26.00;;
39540;SDS011;25219;52.244;21.006;2023-06-22T05:24:28;32.67;;;24.25;;
39540;SDS011;25219;52.244;21.006;2023-06-22T05:26:53;32.70;;;25.15;;
39540;SDS011;25219;52.244;21.006;2023-06-22T05:29:19;35.17;;;25.97;;
39540;SDS011;25219;52.244;21.006;2023-06-22T05:31:44;29.73;;;25.40;;
39540;SDS011;25219;52.244;21.006;2023-06-22T05:34:09;44.37;;;33.77;;
39540;SDS011;25219;52.244;21.006;2023-06-22T05:36:34;41.35;;;30.48;;
39540;SDS011;25219;52.244;21.006;2023-06-22T05:38:59;37.58;;;29.20;;
39540;SDS011;25219;52.244;21.006;2023-06-22T05:41:35;34.35;;;23.58;;
39540;SDS011;25219;52.244;21.006;2023-06-22T05:44:00;33.93;;;24.93;;
39540;SDS011;25219;52.244;21.006;2023-06-22T05:46:25;30.60;;;24.37;;
39540;SDS011;25219;52.244;21.006;2023-06-22T05:48:50;30.45;;;24.23;;
39540;SDS011;25219;52.244;21.006;2023-06-22T05:51:16;31.10;;;24.23;;
39540;SDS011;25219;52.244;21.006;2023-06-22T05:53:41;31.20;;;22.90;;
39540;SDS011;25219;52.244;21.006;2023-06-22T05:56:06;32.83;;;24.03;;
39540;SDS011;25219;52.244;21.006;2023-06-22T05:58:31;30.47;;;23.70;;
39540;SDS011;25219;52.244;21.006;2023-06-22T06:00:56;31.52;;;24.05;;
39540;SDS011;25219;52.244;21.006;2023-06-22T06:03:21;29.73;;;21.93;;
39540;SDS011;25219;52.244;21.006;2023-06-22T06:05:47;27.73;;;21.55;;
39540;SDS011;25219;52.244;21.006;2023-06-22T06:08:12;29.02;;;21.88;;
39540;SDS011;25219;52.244;21.006;2023-06-22T06:10:37;26.77;;;19.90;;
39540;SDS011;25219;52.244;21.006;2023-06-22T06:13:03;23.35;;;19.08;;
39540;SDS011;25219;52.244;21.006;2023-06-22T06:15:29;26.75;;;19.83;;
39540;SDS011;25219;52.244;21.006;2023-06-22T06:17:54;23.83;;;19.23;;
39540;SDS011;25219;52.244;21.006;2023-06-22T06:20:20;26.65;;;19.33;;
39540;SDS011;25219;52.244;21.006;2023-06-22T06:22:46;28.85;;;20.38;;
39540;SDS011;25219;52.244;21.006;2023-06-22T06:25:12;22.73;;;19.20;;
39540;SDS011;25219;52.244;21.006;2023-06-22T06:27:44;30.85;;;20.55;;
39540;SDS011;25219;52.244;21.006;2023-06-22T06:30:10;26.75;;;20.33;;
39540;SDS011;25219;52.244;21.006;2023-06-22T06:32:35;22.42;;;18.25;;
39540;SDS011;25219;52.244;21.006;2023-06-22T06:35:00;24.30;;;19.03;;
39540;SDS011;25219;52.244;21.006;2023-06-22T06:37:26;22.40;;;18.35;;
39540;SDS011;25219;52.244;21.006;2023-06-22T06:39:51;22.37;;;18.57;;
39540;SDS011;25219;52.244;21.006;2023-06-22T06:42:16;22.35;;;18.42;;
39540;SDS011;25219;52.244;21.006;2023-06-22T06:44:41;24.03;;;18.33;;
39540;SDS011;25219;52.244;21.006;2023-06-22T06:47:06;24.60;;;16.53;;
39540;SDS011;25219;52.244;21.006;2023-06-22T06:49:33;20.00;;;15.70;;
39540;SDS011;25219;52.244;21.006;2023-06-22T06:51:58;18.88;;;15.85;;
39540;SDS011;25219;52.244;21.006;2023-06-22T06:54:23;22.27;;;16.10;;
39540;SDS011;25219;52.244;21.006;2023-06-22T06:56:48;22.60;;;15.20;;
39540;SDS011;25219;52.244;21.006;2023-06-22T06:59:14;21.33;;;15.65;;
39540;SDS011;25219;52.244;21.006;2023-06-22T07:01:40;18.05;;;15.45;;
39540;SDS011;25219;52.244;21.006;2023-06-22T07:04:05;21.30;;;14.45;;
39540;SDS011;25219;52.244;21.006;2023-06-22T07:06:30;18.13;;;15.50;;
39540;SDS011;25219;52.244;21.006;2023-06-22T07:08:57;18.08;;;13.73;;
39540;SDS011;25219;52.244;21.006;2023-06-22T07:11:22;19.43;;;13.77;;
39540;SDS011;25219;52.244;21.006;2023-06-22T07:13:47;17.33;;;14.07;;
39540;SDS011;25219;52.244;21.006;2023-06-22T07:16:12;16.97;;;13.33;;
39540;SDS011;25219;52.244;21.006;2023-06-22T07:18:39;16.67;;;12.17;;
39540;SDS011;25219;52.244;21.006;2023-06-22T07:21:04;13.85;;;12.15;;
39540;SDS011;25219;52.244;21.006;2023-06-22T07:23:31;14.98;;;11.82;;
39540;SDS011;25219;52.244;21.006;2023-06-22T07:25:56;17.00;;;11.85;;
39540;SDS011;25219;52.244;21.006;2023-06-22T07:28:21;14.47;;;11.73;;
39540;SDS011;25219;52.244;21.006;2023-06-22T07:30:46;15.23;;;10.77;;
39540;SDS011;25219;52.244;21.006;2023-06-22T07:33:12;15.32;;;10.57;;
39540;SDS011;25219;52.244;21.006;2023-06-22T07:35:37;11.82;;;10.20;;
39540;SDS011;25219;52.244;21.006;2023-06-22T07:38:03;16.17;;;10.20;;
39540;SDS011;25219;52.244;21.006;2023-06-22T07:40:28;15.52;;;10.38;;
39540;SDS011;25219;52.244;21.006;2023-06-22T07:42:53;13.13;;;8.83;;
39540;SDS011;25219;52.244;21.006;2023-06-22T07:45:19;11.20;;;8.07;;
39540;SDS011;25219;52.244;21.006;2023-06-22T07:47:44;7.80;;;7.00;;
39540;SDS011;25219;52.244;21.006;2023-06-22T07:50:10;11.23;;;6.90;;
39540;SDS011;25219;52.244;21.006;2023-06-22T07:52:35;8.20;;;6.88;;
39540;SDS011;25219;52.244;21.006;2023-06-22T07:55:00;11.85;;;6.43;;
39540;SDS011;25219;52.244;21.006;2023-06-22T07:57:26;8.15;;;6.15;;
39540;SDS011;25219;52.244;21.006;2023-06-22T07:59:58;9.68;;;5.68;;
39540;SDS011;25219;52.244;21.006;2023-06-22T08:02:24;8.57;;;5.82;;
39540;SDS011;25219;52.244;21.006;2023-06-22T08:04:49;8.02;;;5.18;;
39540;SDS011;25219;52.244;21.006;2023-06-22T08:07:15;8.33;;;4.63;;
39540;SDS011;25219;52.244;21.006;2023-06-22T08:09:42;7.30;;;4.97;;
39540;SDS011;25219;52.244;21.006;2023-06-22T08:12:10;8.05;;;4.85;;
39540;SDS011;25219;52.244;21.006;2023-06-22T08:14:37;9.87;;;4.87;;
39540;SDS011;25219;52.244;21.006;2023-06-22T08:17:02;5.57;;;4.38;;
39540;SDS011;25219;52.244;21.006;2023-06-22T08:19:28;7.73;;;4.17;;
39540;SDS011;25219;52.244;21.006;2023-06-22T08:21:53;5.05;;;4.47;;
39540;SDS011;25219;52.244;21.006;2023-06-22T08:24:18;6.63;;;3.88;;
39540;SDS011;25219;52.244;21.006;2023-06-22T08:26:43;8.80;;;4.77;;
39540;SDS011;25219;52.244;21.006;2023-06-22T08:29:08;6.90;;;3.90;;
39540;SDS011;25219;52.244;21.006;2023-06-22T08:31:34;6.80;;;4.35;;
39540;SDS011;25219;52.244;21.006;2023-06-22T08:33:59;4.40;;;4.00;;
39540;SDS011;25219;52.244;21.006;2023-06-22T08:36:24;6.90;;;3.67;;
39540;SDS011;25219;52.244;21.006;2023-06-22T08:38:50;5.10;;;3.47;;
39540;SDS011;25219;52.244;21.006;2023-06-22T08:41:16;4.30;;;3.00;;
39540;SDS011;25219;52.244;21.006;2023-06-22T08:43:42;5.00;;;3.72;;
39540;SDS011;25219;52.244;21.006;2023-06-22T08:46:08;5.53;;;3.22;;
39540;SDS011;25219;52.244;21.006;2023-06-22T08:48:33;4.03;;;3.10;;
39540;SDS011;25219;52.244;21.006;2023-06-22T08:50:58;5.67;;;3.30;;
39540;SDS011;25219;52.244;21.006;2023-06-22T08:53:23;2.88;;;2.67;;
39540;SDS011;25219;52.244;21.006;2023-06-22T08:55:48;6.77;;;2.83;;
39540;SDS011;25219;52.244;21.006;2023-06-22T08:58:15;4.28;;;2.60;;
39540;SDS011;25219;52.244;21.006;2023-06-22T09:00:41;6.15;;;3.03;;
39540;SDS011;25219;52.244;21.006;2023-06-22T09:03:06;3.00;;;2.70;;
39540;SDS011;25219;52.244;21.006;2023-06-22T09:05:31;4.55;;;2.80;;
39540;SDS011;25219;52.244;21.006;2023-06-22T09:07:56;4.88;;;2.67;;
39540;SDS011;25219;52.244;21.006;2023-06-22T09:10:23;4.85;;;2.80;;
39540;SDS011;25219;52.244;21.006;2023-06-22T09:12:48;3.13;;;2.43;;
39540;SDS011;25219;52.244;21.006;2023-06-22T09:15:14;3.00;;;2.20;;
39540;SDS011;25219;52.244;21.006;2023-06-22T09:17:40;7.10;;;2.43;;
39540;SDS011;25219;52.244;21.006;2023-06-22T09:20:05;4.60;;;3.10;;
39540;SDS011;25219;52.244;21.006;2023-06-22T09:22:32;3.78;;;2.78;;
39540;SDS011;25219;52.244;21.006;2023-06-22T09:24:58;5.67;;;3.00;;
39540;SDS011;25219;52.244;21.006;2023-06-22T09:27:23;6.00;;;5.40;;
39540;SDS011;25219;52.244;21.006;2023-06-22T09:29:49;3.67;;;2.70;;
39540;SDS011;25219;52.244;21.006;2023-06-22T09:32:14;5.20;;;2.53;;
39540;SDS011;25219;52.244;21.006;2023-06-22T09:34:39;3.03;;;2.42;;
39540;SDS011;25219;52.244;21.006;2023-06-22T09:37:05;2.33;;;2.00;;
39540;SDS011;25219;52.244;21.006;2023-06-22T09:39:30;3.70;;;2.33;;
39540;SDS011;25219;52.244;21.006;2023-06-22T09:41:55;6.53;;;2.30;;
39540;SDS011;25219;52.244;21.006;2023-06-22T09:44:20;3.50;;;2.57;;
39540;SDS011;25219;52.244;21.006;2023-06-22T09:46:45;13.53;;;10.17;;
39540;SDS011;25219;52.244;21.006;2023-06-22T09:49:10;6.93;;;2.63;;
39540;SDS011;25219;52.244;21.006;2023-06-22T09:51:36;5.47;;;2.50;;
39540;SDS011;25219;52.244;21.006;2023-06-22T09:54:01;3.53;;;2.58;;
39540;SDS011;25219;52.244;21.006;2023-06-22T09:56:26;4.07;;;2.60;;
39540;SDS011;25219;52.244;21.006;2023-06-22T09:58:53;4.00;;;2.45;;
39540;SDS011;25219;52.244;21.006;2023-06-22T10:01:18;10.13;;;5.07;;
39540;SDS011;25219;52.244;21.006;2023-06-22T10:03:43;5.30;;;2.70;;
39540;SDS011;25219;52.244;21.006;2023-06-22T10:06:09;4.87;;;2.40;;
39540;SDS011;25219;52.244;21.006;2023-06-22T10:08:36;7.00;;;2.87;;
39540;SDS011;25219;52.244;21.006;2023-06-22T10:11:02;4.70;;;2.67;;
39540;SDS011;25219;52.244;21.006;2023-06-22T10:13:28;3.08;;;2.80;;
39540;SDS011;25219;52.244;21.006;2023-06-22T10:15:53;7.03;;;3.10;;
39540;SDS011;25219;52.244;21.006;2023-06-22T10:18:18;7.63;;;2.70;;
39540;SDS011;25219;52.244;21.006;2023-06-22T10:20:44;3.78;;;2.70;;
39540;SDS011;25219;52.244;21.006;2023-06-22T10:23:09;7.53;;;2.90;;
39540;SDS011;25219;52.244;21.006;2023-06-22T10:25:34;3.83;;;2.73;;
39540;SDS011;25219;52.244;21.006;2023-06-22T10:27:59;3.73;;;2.50;;
39540;SDS011;25219;52.244;21.006;2023-06-22T10:30:24;4.35;;;2.40;;
39540;SDS011;25219;52.244;21.006;2023-06-22T10:32:50;3.95;;;3.30;;
39540;SDS011;25219;52.244;21.006;2023-06-22T10:35:15;4.97;;;2.63;;
39540;SDS011;25219;52.244;21.006;2023-06-22T10:37:43;7.65;;;3.75;;
39540;SDS011;25219;52.244;21.006;2023-06-22T10:40:09;5.03;;;2.80;;
39540;SDS011;25219;52.244;21.006;2023-06-22T10:42:34;4.47;;;2.97;;
39540;SDS011;25219;52.244;21.006;2023-06-22T10:44:59;5.67;;;3.13;;
39540;SDS011;25219;52.244;21.006;2023-06-22T10:47:24;6.43;;;2.90;;
39540;SDS011;25219;52.244;21.006;2023-06-22T10:49:49;6.30;;;3.30;;
39540;SDS011;25219;52.244;21.006;2023-06-22T10:52:15;4.50;;;3.07;;
39540;SDS011;25219;52.244;21.006;2023-06-22T10:54:40;3.97;;;3.10;;
39540;SDS011;25219;52.244;21.006;2023-06-22T10:57:06;5.00;;;2.90;;
39540;SDS011;25219;52.244;21.006;2023-06-22T10:59:31;5.43;;;3.43;;
39540;SDS011;25219;52.244;21.006;2023-06-22T11:01:56;7.40;;;3.10;;
39540;SDS011;25219;52.244;21.006;2023-06-22T11:04:22;5.72;;;3.00;;
39540;SDS011;25219;52.244;21.006;2023-06-22T11:06:48;4.20;;;3.47;;
39540;SDS011;25219;52.244;21.006;2023-06-22T11:09:13;4.63;;;3.08;;
39540;SDS011;25219;52.244;21.006;2023-06-22T11:11:43;6.93;;;3.33;;
39540;SDS011;25219;52.244;21.006;2023-06-22T11:14:08;6.63;;;3.37;;
39540;SDS011;25219;52.244;21.006;2023-06-22T11:16:33;7.25;;;3.75;;
39540;SDS011;25219;52.244;21.006;2023-06-22T11:18:59;5.60;;;3.20;;
39540;SDS011;25219;52.244;21.006;2023-06-22T11:21:24;7.03;;;3.23;;
39540;SDS011;25219;52.244;21.006;2023-06-22T11:23:50;4.33;;;3.10;;
39540;SDS011;25219;52.244;21.006;2023-06-22T11:26:15;6.82;;;3.33;;
39540;SDS011;25219;52.244;21.006;2023-06-22T11:28:40;3.47;;;2.90;;
39540;SDS011;25219;52.244;21.006;2023-06-22T11:31:05;4.20;;;3.27;;
39540;SDS011;25219;52.244;21.006;2023-06-22T11:33:32;5.13;;;3.80;;
39540;SDS011;25219;52.244;21.006;2023-06-22T11:35:57;6.50;;;3.20;;
39540;SDS011;25219;52.244;21.006;2023-06-22T11:38:22;6.93;;;3.60;;
39540;SDS011;25219;52.244;21.006;2023-06-22T11:40:47;4.17;;;3.23;;
39540;SDS011;25219;52.244;21.006;2023-06-22T11:43:12;5.17;;;3.60;;
39540;SDS011;25219;52.244;21.006;2023-06-22T11:45:39;3.95;;;3.35;;
39540;SDS011;25219;52.244;21.006;2023-06-22T11:48:05;14.53;;;3.50;;
39540;SDS011;25219;52.244;21.006;2023-06-22T11:50:30;5.37;;;3.30;;
39540;SDS011;25219;52.244;21.006;2023-06-22T11:52:59;4.93;;;3.17;;
39540;SDS011;25219;52.244;21.006;2023-06-22T11:55:24;7.70;;;3.47;;
39540;SDS011;25219;52.244;21.006;2023-06-22T11:57:56;5.55;;;3.67;;
39540;SDS011;25219;52.244;21.006;2023-06-22T12:00:23;7.93;;;3.33;;
39540;SDS011;25219;52.244;21.006;2023-06-22T12:02:49;5.97;;;3.42;;
39540;SDS011;25219;52.244;21.006;2023-06-22T12:05:16;7.47;;;3.65;;
39540;SDS011;25219;52.244;21.006;2023-06-22T12:07:41;5.07;;;3.10;;
39540;SDS011;25219;52.244;21.006;2023-06-22T12:10:06;5.37;;;3.43;;
39540;SDS011;25219;52.244;21.006;2023-06-22T12:12:32;4.82;;;3.90;;
39540;SDS011;25219;52.244;21.006;2023-06-22T12:14:57;4.83;;;3.60;;
39540;SDS011;25219;52.244;21.006;2023-06-22T12:17:22;4.73;;;3.33;;
39540;SDS011;25219;52.244;21.006;2023-06-22T12:19:47;5.63;;;3.37;;
39540;SDS011;25219;52.244;21.006;2023-06-22T12:22:12;5.63;;;3.13;;
39540;SDS011;25219;52.244;21.006;2023-06-22T12:24:37;6.27;;;3.60;;
39540;SDS011;25219;52.244;21.006;2023-06-22T12:27:03;4.53;;;3.47;;
39540;SDS011;25219;52.244;21.006;2023-06-22T12:29:28;6.47;;;3.63;;
39540;SDS011;25219;52.244;21.006;2023-06-22T12:31:53;7.67;;;3.13;;
39540;SDS011;25219;52.244;21.006;2023-06-22T12:34:19;5.53;;;3.57;;
39540;SDS011;25219;52.244;21.006;2023-06-22T12:36:44;5.67;;;3.73;;
39540;SDS011;25219;52.244;21.006;2023-06-22T12:39:09;7.47;;;3.30;;
39540;SDS011;25219;52.244;21.006;2023-06-22T12:41:34;8.27;;;3.50;;
39540;SDS011;25219;52.244;21.006;2023-06-22T12:43:59;6.03;;;3.90;;
39540;SDS011;25219;52.244;21.006;2023-06-22T12:46:24;7.68;;;3.53;;
39540;SDS011;25219;52.244;21.006;2023-06-22T12:48:49;6.73;;;3.20;;
39540;SDS011;25219;52.244;21.006;2023-06-22T12:51:21;6.67;;;3.30;;
39540;SDS011;25219;52.244;21.006;2023-06-22T12:53:47;4.72;;;3.15;;
39540;SDS011;25219;52.244;21.006;2023-06-22T12:56:12;7.53;;;3.73;;
39540;SDS011;25219;52.244;21.006;2023-06-22T12:58:37;4.83;;;3.63;;
39540;SDS011;25219;52.244;21.006;2023-06-22T13:01:02;4.37;;;3.40;;
39540;SDS011;25219;52.244;21.006;2023-06-22T13:03:28;5.68;;;4.60;;
39540;SDS011;25219;52.244;21.006;2023-06-22T13:05:53;5.65;;;3.97;;
39540;SDS011;25219;52.244;21.006;2023-06-22T13:08:18;10.45;;;3.92;;
39540;SDS011;25219;52.244;21.006;2023-06-22T13:10:43;6.90;;;3.90;;
39540;SDS011;25219;52.244;21.006;2023-06-22T13:13:09;5.95;;;4.13;;
39540;SDS011;25219;52.244;21.006;2023-06-22T13:15:34;7.18;;;4.15;;
39540;SDS011;25219;52.244;21.006;2023-06-22T13:17:59;9.18;;;4.13;;
39540;SDS011;25219;52.244;21.006;2023-06-22T13:20:24;4.72;;;4.05;;
39540;SDS011;25219;52.244;21.006;2023-06-22T13:22:49;4.60;;;3.80;;
39540;SDS011;25219;52.244;21.006;2023-06-22T13:25:14;5.93;;;3.97;;
39540;SDS011;25219;52.244;21.006;2023-06-22T13:27:44;5.35;;;3.65;;
39540;SDS011;25219;52.244;21.006;2023-06-22T13:30:09;5.90;;;3.53;;
39540;SDS011;25219;52.244;21.006;2023-06-22T13:32:34;5.07;;;3.47;;
39540;SDS011;25219;52.244;21.006;2023-06-22T13:34:59;3.63;;;2.73;;
39540;SDS011;25219;52.244;21.006;2023-06-22T13:37:25;8.87;;;3.80;;
39540;SDS011;25219;52.244;21.006;2023-06-22T13:39:50;4.80;;;3.72;;
39540;SDS011;25219;52.244;21.006;2023-06-22T13:42:15;4.70;;;3.80;;
39540;SDS011;25219;52.244;21.006;2023-06-22T13:44:41;5.47;;;3.50;;
39540;SDS011;25219;52.244;21.006;2023-06-22T13:47:06;3.90;;;3.37;;
39540;SDS011;25219;52.244;21.006;2023-06-22T13:49:31;8.20;;;3.60;;
39540;SDS011;25219;52.244;21.006;2023-06-22T13:51:56;4.13;;;3.40;;
39540;SDS011;25219;52.244;21.006;2023-06-22T13:54:22;7.25;;;3.85;;
39540;SDS011;25219;52.244;21.006;2023-06-22T13:56:47;6.13;;;3.60;;
39540;SDS011;25219;52.244;21.006;2023-06-22T13:59:12;4.03;;;3.27;;
39540;SDS011;25219;52.244;21.006;2023-06-22T14:01:37;4.73;;;4.03;;
39540;SDS011;25219;52.244;21.006;2023-06-22T14:04:04;5.63;;;4.40;;
39540;SDS011;25219;52.244;21.006;2023-06-22T14:06:30;5.55;;;4.35;;
39540;SDS011;25219;52.244;21.006;2023-06-22T14:08:55;4.57;;;4.10;;
39540;SDS011;25219;52.244;21.006;2023-06-22T14:11:21;9.05;;;5.05;;
39540;SDS011;25219;52.244;21.006;2023-06-22T14:13:46;5.97;;;4.47;;
39540;SDS011;25219;52.244;21.006;2023-06-22T14:16:11;4.20;;;3.80;;